createdAt,value
2023-05-09T00:02:28.738Z,101673.52
2023-05-09T00:04:59.629Z,101672.98
2023-05-09T00:07:30.413Z,101674.13
2023-05-09T00:10:01.554Z,101671.70
2023-05-09T00:12:32.478Z,101665.70
2023-05-09T00:15:03.945Z,101664.80
2023-05-09T00:17:36.565Z,101666.80
2023-05-09T00:20:12.446Z,101663.16
2023-05-09T00:22:43.604Z,101663.65
2023-05-09T00:25:14.824Z,101661.41
2023-05-09T00:27:46.869Z,101658.14
2023-05-09T00:30:18.613Z,101656.23
2023-05-09T00:32:49.441Z,101655.17
2023-05-09T00:35:20.276Z,101653.06
2023-05-09T00:37:51.709Z,101653.52
2023-05-09T00:40:22.758Z,101653.98
2023-05-09T00:42:53.852Z,101655.65
2023-05-09T00:45:24.957Z,101654.93
2023-05-09T00:47:56.719Z,101652.50
2023-05-09T00:50:28.490Z,101654.15
2023-05-09T00:52:59.490Z,101657.15
2023-05-09T00:55:30.620Z,101653.86
2023-05-09T00:58:01.507Z,101655.70
2023-05-09T01:00:32.401Z,101654.29
2023-05-09T01:03:03.993Z,101654.75
2023-05-09T01:05:45.164Z,101649.27
2023-05-09T01:08:30.830Z,101651.27
2023-05-09T01:11:09.913Z,101650.87
2023-05-09T01:13:50.942Z,101652.83
2023-05-09T01:16:31.248Z,101652.23
2023-05-09T01:19:13.595Z,101653.20
2023-05-09T01:21:48.113Z,101650.90
2023-05-09T01:24:35.345Z,101649.45
2023-05-09T01:27:22.521Z,101647.16
2023-05-09T01:29:58.189Z,101648.11
2023-05-09T01:32:32.533Z,101649.59
2023-05-09T01:35:06.501Z,101650.04
2023-05-09T01:37:40.851Z,101652.16
2023-05-09T01:40:16.724Z,101651.75
2023-05-09T01:42:52.982Z,101651.70
2023-05-09T01:45:26.429Z,101648.60
2023-05-09T01:47:59.924Z,101649.41
2023-05-09T01:50:32.754Z,101649.36
2023-05-09T01:53:07.527Z,101649.32
2023-05-09T01:55:40.688Z,101650.30
2023-05-09T01:58:13.248Z,101652.49
2023-05-09T02:00:45.152Z,101648.38
2023-05-09T02:03:17.114Z,101643.77
2023-05-09T02:05:49.246Z,101644.77
2023-05-09T02:08:22.247Z,101642.17
2023-05-09T02:10:54.366Z,101640.60
2023-05-09T02:13:25.595Z,101641.92
2023-05-09T02:15:58.040Z,101644.23
2023-05-09T02:18:29.614Z,101643.16
2023-05-09T02:21:01.126Z,101637.67
2023-05-09T02:23:32.766Z,101639.86
2023-05-09T02:26:04.972Z,101642.90
2023-05-09T02:28:37.893Z,101642.55
2023-05-09T02:31:09.705Z,101638.79
2023-05-09T02:33:42.923Z,101641.48
2023-05-09T02:36:16.665Z,101638.42
2023-05-09T02:38:48.553Z,101638.23
2023-05-09T02:41:19.928Z,101641.44
2023-05-09T02:43:51.949Z,101641.59
2023-05-09T02:46:23.042Z,101641.54
2023-05-09T02:48:54.170Z,101645.55
2023-05-09T02:51:25.022Z,101642.61
2023-05-09T02:53:55.992Z,101641.05
2023-05-09T02:56:27.005Z,101639.84
2023-05-09T02:58:57.790Z,101639.86
2023-05-09T03:01:28.754Z,101639.49
2023-05-09T03:04:00.424Z,101640.52
2023-05-09T03:06:31.451Z,101640.36
2023-05-09T03:09:02.351Z,101643.95
2023-05-09T03:11:33.919Z,101646.87
2023-05-09T03:14:05.080Z,101647.38
2023-05-09T03:16:36.171Z,101646.20
2023-05-09T03:19:07.890Z,101650.64
2023-05-09T03:21:38.654Z,101645.86
2023-05-09T03:24:11.770Z,101646.92
2023-05-09T03:26:42.749Z,101649.19
2023-05-09T03:29:13.645Z,101648.08
2023-05-09T03:31:44.630Z,101645.42
2023-05-09T03:34:15.516Z,101644.35
2023-05-09T03:36:47.801Z,101647.82
2023-05-09T03:39:18.857Z,101647.92
2023-05-09T03:41:51.162Z,101646.98
2023-05-09T03:44:22.104Z,101649.86
2023-05-09T03:46:53.117Z,101654.51
2023-05-09T03:49:24.228Z,101652.98
2023-05-09T03:52:20.620Z,101655.27
2023-05-09T03:54:52.679Z,101657.72
2023-05-09T03:57:24.034Z,101655.16
2023-05-09T03:59:55.268Z,101650.92
2023-05-09T04:02:27.340Z,101648.63
2023-05-09T04:05:06.582Z,101646.39
2023-05-09T04:07:38.352Z,101644.61
2023-05-09T04:10:11.714Z,101643.45
2023-05-09T04:27:04.821Z,101631.73
2023-05-09T04:29:42.098Z,101635.95
2023-05-09T04:32:17.751Z,101630.94
2023-05-09T04:34:50.448Z,101632.15
2023-05-09T04:37:28.713Z,101638.39
2023-05-09T04:43:32.907Z,101631.55
2023-05-09T04:46:03.771Z,101634.66
2023-05-09T04:48:35.721Z,101633.95
2023-05-09T04:51:13.194Z,101633.01
2023-05-09T04:53:44.432Z,101630.92
2023-05-09T04:56:15.444Z,101631.83
2023-05-09T04:58:52.823Z,101633.38
2023-05-09T05:01:23.630Z,101634.05
2023-05-09T05:04:18.517Z,101637.23
2023-05-09T05:06:49.283Z,101638.41
2023-05-09T05:09:20.485Z,101635.73
2023-05-09T05:12:00.797Z,101630.77
2023-05-09T05:14:33.519Z,101633.33
2023-05-09T05:18:03.862Z,101628.17
2023-05-09T05:21:36.655Z,101630.98
2023-05-09T05:24:10.955Z,101632.96
2023-05-09T05:26:42.616Z,101631.79
2023-05-09T05:50:17.915Z,101618.16
2023-05-09T05:52:50.527Z,101622.67
2023-05-09T05:55:24.686Z,101620.92
2023-05-09T05:57:57.138Z,101617.97
2023-05-09T06:00:29.983Z,101618.69
2023-05-09T06:03:07.145Z,101621.05
2023-05-09T06:05:48.675Z,101616.58
2023-05-09T06:08:22.218Z,101619.70
2023-05-09T06:10:54.201Z,101619.35
2023-05-09T06:13:25.058Z,101615.01
2023-05-09T06:16:15.028Z,101614.25
2023-05-09T06:18:50.130Z,101612.02
2023-05-09T06:21:21.114Z,101616.11
2023-05-09T06:24:07.723Z,101616.92
2023-05-09T06:26:41.582Z,101616.61
2023-05-09T06:29:16.973Z,101621.23
2023-05-09T06:31:48.174Z,101616.73
2023-05-09T06:34:19.338Z,101617.30
2023-05-09T06:36:50.577Z,101619.52
2023-05-09T06:39:23.295Z,101619.98
2023-05-09T06:42:18.026Z,101619.73
2023-05-09T06:44:48.868Z,101618.57
2023-05-09T06:47:20.085Z,101621.73
2023-05-09T06:49:52.217Z,101618.47
2023-05-09T06:52:26.178Z,101620.16
2023-05-09T06:55:00.386Z,101614.38
2023-05-09T06:57:44.212Z,101614.06
2023-05-09T07:00:22.951Z,101612.34
2023-05-09T07:03:08.670Z,101607.98
2023-05-09T07:05:43.174Z,101607.13
2023-05-09T07:08:16.083Z,101609.86
2023-05-09T07:11:13.187Z,101605.42
2023-05-09T07:13:50.478Z,101599.77
2023-05-09T07:16:23.239Z,101598.01
2023-05-09T07:18:55.920Z,101595.19
2023-05-09T07:21:28.068Z,101598.36
2023-05-09T07:23:58.955Z,101600.70
2023-05-09T07:26:31.567Z,101590.39
2023-05-09T07:29:02.466Z,101590.88
2023-05-09T07:31:37.347Z,101589.71
2023-05-09T07:34:08.863Z,101588.20
2023-05-09T07:36:39.871Z,101587.59
2023-05-09T07:39:10.855Z,101584.36
2023-05-09T07:41:42.293Z,101574.02
2023-05-09T07:44:13.477Z,101573.67
2023-05-09T07:46:47.103Z,101573.09
2023-05-09T07:49:17.993Z,101577.31
2023-05-09T07:51:49.530Z,101573.58
2023-05-09T07:54:21.177Z,101566.66
2023-05-09T07:56:52.199Z,101563.92
2023-05-09T07:59:23.025Z,101560.31
2023-05-09T08:01:54.220Z,101564.23
2023-05-09T08:04:25.476Z,101575.15
2023-05-09T08:06:56.377Z,101577.07
2023-05-09T08:09:27.762Z,101563.73
2023-05-09T08:12:00.029Z,101564.80
2023-05-09T08:14:32.744Z,101566.11
2023-05-09T08:17:07.313Z,101559.27
2023-05-09T08:19:38.275Z,101554.81
2023-05-09T08:22:09.177Z,101559.02
2023-05-09T08:24:40.040Z,101549.05
2023-05-09T08:27:10.837Z,101553.58
2023-05-09T08:29:45.432Z,101548.48
2023-05-09T08:32:16.427Z,101552.02
2023-05-09T08:34:49.053Z,101546.48
2023-05-09T08:37:20.027Z,101544.09
2023-05-09T08:39:50.864Z,101543.35
2023-05-09T08:42:26.069Z,101540.96
2023-05-09T08:44:57.716Z,101542.32
2023-05-09T08:47:30.507Z,101545.84
2023-05-09T08:50:03.066Z,101546.70
2023-05-09T08:52:35.204Z,101532.35
2023-05-09T08:55:06.957Z,101524.19
2023-05-09T08:58:01.930Z,101520.76
2023-05-09T09:00:39.828Z,101516.73
2023-05-09T09:03:09.129Z,101522.20
2023-05-09T09:05:43.695Z,101533.98
2023-05-09T09:08:15.519Z,101522.05
2023-05-09T09:10:48.486Z,101528.42
2023-05-09T09:14:09.032Z,101513.07
2023-05-09T09:16:42.560Z,101508.21
2023-05-09T09:19:17.970Z,101515.55
2023-05-09T09:21:51.205Z,101512.61
2023-05-09T09:24:25.858Z,101516.64
2023-05-09T09:26:56.636Z,101510.58
2023-05-09T09:29:28.828Z,101508.48
2023-05-09T09:32:03.213Z,101493.05
2023-05-09T09:34:34.524Z,101493.23
2023-05-09T09:37:07.533Z,101493.52
2023-05-09T09:40:01.940Z,101496.32
2023-05-09T09:42:43.939Z,101497.89
2023-05-09T09:45:16.686Z,101492.84
2023-05-09T09:47:48.963Z,101492.93
2023-05-09T09:50:23.470Z,101492.45
2023-05-09T09:53:19.417Z,101489.16
2023-05-09T09:55:53.976Z,101484.41
2023-05-09T09:58:25.580Z,101493.17
2023-05-09T10:01:09.889Z,101489.30
2023-05-09T10:03:42.498Z,101483.50
2023-05-09T10:06:17.686Z,101476.37
2023-05-09T10:08:52.404Z,101485.08
2023-05-09T10:11:23.385Z,101484.97
2023-05-09T10:13:59.494Z,101469.27
2023-05-09T10:16:43.850Z,101470.23
2023-05-09T10:19:23.219Z,101473.80
2023-05-09T10:21:57.624Z,101463.91
2023-05-09T10:24:35.516Z,101468.31
2023-05-09T10:27:11.685Z,101468.24
2023-05-09T10:30:04.048Z,101459.59
2023-05-09T10:32:43.363Z,101455.59
2023-05-09T10:35:17.333Z,101451.30
2023-05-09T10:37:49.423Z,101448.64
2023-05-09T10:40:20.658Z,101452.63
2023-05-09T10:42:51.888Z,101447.28
2023-05-09T10:45:23.927Z,101446.14
2023-05-09T10:47:57.497Z,101451.45
2023-05-09T10:50:30.400Z,101439.11
2023-05-09T10:53:20.588Z,101450.11
2023-05-09T10:56:00.432Z,101447.86
2023-05-09T10:58:33.757Z,101425.16
2023-05-09T11:01:07.067Z,101441.73
2023-05-09T11:03:58.024Z,101430.26
2023-05-09T11:06:49.577Z,101416.32
2023-05-09T11:09:28.757Z,101420.89
2023-05-09T11:12:02.331Z,101416.39
2023-05-09T11:14:39.180Z,101422.45
2023-05-09T11:17:17.382Z,101409.50
2023-05-09T11:20:07.887Z,101404.27
2023-05-09T11:22:44.456Z,101399.52
2023-05-09T11:25:17.185Z,101411.21
2023-05-09T11:27:50.233Z,101402.70
2023-05-09T11:30:22.515Z,101394.38
2023-05-09T11:32:59.019Z,101381.77
2023-05-09T11:35:30.255Z,101381.16
2023-05-09T11:38:05.140Z,101370.60
2023-05-09T11:40:37.431Z,101370.25
2023-05-09T11:43:11.137Z,101349.80
2023-05-09T11:45:43.478Z,101351.54
2023-05-09T11:48:15.165Z,101354.73
2023-05-09T11:50:50.120Z,101361.05
2023-05-09T11:53:22.592Z,101360.80
2023-05-09T11:55:55.219Z,101358.19
2023-05-09T11:58:25.978Z,101340.05
2023-05-09T12:00:57.589Z,101326.11
2023-05-09T12:03:31.114Z,101326.52
2023-05-09T12:06:03.333Z,101326.52
2023-05-09T12:08:37.386Z,101330.42
2023-05-09T12:11:21.540Z,101336.49
2023-05-09T12:14:01.449Z,101340.42
2023-05-09T12:16:35.006Z,101328.78
2023-05-09T12:19:06.280Z,101325.20
2023-05-09T12:21:41.374Z,101325.25
2023-05-09T12:24:13.231Z,101315.39
2023-05-09T12:26:44.927Z,101315.40
2023-05-09T12:30:23.472Z,101316.10
2023-05-09T12:33:05.453Z,101303.35
2023-05-09T12:35:39.672Z,101297.95
2023-05-09T12:38:17.179Z,101300.66
2023-05-09T12:41:03.683Z,101310.35
2023-05-09T12:43:38.108Z,101293.29
2023-05-09T12:46:09.218Z,101289.85
2023-05-09T12:48:43.976Z,101282.10
2023-05-09T12:51:19.314Z,101281.80
2023-05-09T12:53:50.490Z,101284.42
2023-05-09T12:56:24.301Z,101281.89
2023-05-09T12:58:57.665Z,101269.41
2023-05-09T13:04:31.406Z,101258.11
2023-05-09T13:07:11.507Z,101255.03
2023-05-09T13:09:57.956Z,101257.82
2023-05-09T13:12:29.483Z,101256.14
2023-05-09T13:15:00.768Z,101251.34
2023-05-09T13:17:34.569Z,101250.46
2023-05-09T13:20:09.344Z,101246.66
2023-05-09T13:22:40.562Z,101249.13
2023-05-09T13:25:17.169Z,101248.52
2023-05-09T13:27:48.016Z,101238.71
2023-05-09T13:30:21.605Z,101236.80
2023-05-09T13:32:54.917Z,101244.40
2023-05-09T13:35:26.008Z,101230.23
2023-05-09T13:37:59.188Z,101226.64
2023-05-09T13:40:30.298Z,101224.84
2023-05-09T13:43:03.882Z,101215.91
2023-05-09T13:45:43.915Z,101223.67
2023-05-09T13:48:21.161Z,101227.34
2023-05-09T13:50:53.450Z,101222.27
2023-05-09T13:53:24.544Z,101202.48
2023-05-09T13:55:55.486Z,101208.69
2023-05-09T13:58:26.325Z,101204.11
2023-05-09T14:00:57.334Z,101207.12
2023-05-09T14:03:28.511Z,101201.91
2023-05-09T14:06:00.039Z,101198.48
2023-05-09T14:08:35.470Z,101190.77
2023-05-09T14:11:07.653Z,101189.54
2023-05-09T14:13:38.593Z,101181.41
2023-05-09T14:16:09.966Z,101187.09
2023-05-09T14:18:42.428Z,101184.77
2023-05-09T14:21:13.755Z,101188.90
2023-05-09T14:23:46.359Z,101181.90
2023-05-09T14:26:17.276Z,101178.81
2023-05-09T14:28:48.315Z,101183.50
2023-05-09T14:32:07.613Z,101176.80
2023-05-09T14:34:38.625Z,101168.17
2023-05-09T14:37:13.778Z,101166.95
2023-05-09T14:39:43.337Z,101172.82
2023-05-09T14:42:14.445Z,101165.25
2023-05-09T14:44:47.656Z,101160.07
2023-05-09T14:47:20.780Z,101164.54
2023-05-09T14:49:52.360Z,101167.40
2023-05-09T14:52:23.639Z,101161.02
2023-05-09T14:54:54.549Z,101169.45
2023-05-09T14:57:25.343Z,101164.22
2023-05-09T15:00:12.634Z,101170.30
2023-05-09T15:02:50.760Z,101159.98
2023-05-09T15:05:22.460Z,101150.34
2023-05-09T15:07:53.487Z,101156.09
2023-05-09T15:10:32.672Z,101155.52
2023-05-09T15:13:05.941Z,101149.95
2023-05-09T15:15:38.500Z,101136.16
2023-05-09T15:18:15.904Z,101126.87
2023-05-09T15:20:47.444Z,101135.34
2023-05-09T15:23:18.855Z,101135.52
2023-05-09T15:25:49.742Z,101136.74
2023-05-09T15:28:20.575Z,101129.55
2023-05-09T15:30:51.856Z,101127.52
2023-05-09T15:33:22.651Z,101124.10
2023-05-09T15:35:57.756Z,101126.50
2023-05-09T15:38:27.207Z,101124.70
2023-05-09T15:40:58.089Z,101126.96
2023-05-09T15:43:28.988Z,101124.79
2023-05-09T15:45:59.771Z,101109.16
2023-05-09T15:48:31.303Z,101115.92
2023-05-09T15:51:02.732Z,101114.27
2023-05-09T15:53:34.292Z,101113.80
2023-05-09T15:56:05.312Z,101108.33
2023-05-09T15:58:36.969Z,101106.98
2023-05-09T16:01:10.879Z,101102.73
2023-05-09T16:03:43.456Z,101097.37
2023-05-09T16:06:15.659Z,101092.73
2023-05-09T16:08:47.679Z,101092.02
2023-05-09T16:11:18.770Z,101092.72
2023-05-09T16:13:49.730Z,101088.10
2023-05-09T16:16:20.795Z,101087.09
2023-05-09T16:18:53.485Z,101082.33
2023-05-09T16:21:26.409Z,101079.95
2023-05-09T16:23:58.114Z,101078.64
2023-05-09T16:26:28.978Z,101072.82
2023-05-09T16:29:00.518Z,101070.85
2023-05-09T16:31:32.737Z,101069.36
2023-05-09T16:34:08.338Z,101070.65
2023-05-09T16:36:44.261Z,101066.75
2023-05-09T16:39:20.233Z,101057.11
2023-05-09T16:41:51.268Z,101054.52
2023-05-09T16:44:22.420Z,101055.20
2023-05-09T16:46:53.288Z,101054.17
2023-05-09T16:49:24.165Z,101055.88
2023-05-09T16:51:54.962Z,101054.14
2023-05-09T16:54:29.381Z,101040.35
2023-05-09T16:57:01.236Z,101045.38
2023-05-09T16:59:32.919Z,101043.86
2023-05-09T17:02:04.579Z,101048.55
2023-05-09T17:04:37.796Z,101045.35
2023-05-09T17:07:09.079Z,101045.92
2023-05-09T17:09:40.000Z,101040.97
2023-05-09T17:12:17.604Z,101039.95
2023-05-09T17:14:54.456Z,101036.51
2023-05-09T17:17:25.733Z,101034.52
2023-05-09T17:19:57.864Z,101036.66
2023-05-09T17:22:37.213Z,101036.43
2023-05-09T17:25:32.156Z,101031.93
2023-05-09T17:28:05.340Z,101030.98
2023-05-09T17:30:42.705Z,101031.61
2023-05-09T17:33:14.257Z,101032.91
2023-05-09T17:35:45.167Z,101033.02
2023-05-09T17:38:18.402Z,101031.88
2023-05-09T17:45:16.808Z,101029.20
2023-05-09T17:47:48.165Z,101029.45
2023-05-09T17:51:30.785Z,101032.09
2023-05-09T17:58:23.327Z,101038.80
2023-05-09T18:06:27.587Z,101035.27
2023-05-09T18:09:37.879Z,101041.90
2023-05-09T18:12:09.999Z,101044.40
2023-05-09T18:14:43.843Z,101047.23
2023-05-09T18:17:15.117Z,101043.73
2023-05-09T18:19:48.460Z,101042.79
2023-05-09T18:22:20.951Z,101041.30
2023-05-09T18:28:39.537Z,101044.40
2023-05-09T18:31:22.410Z,101042.21
2023-05-09T18:43:15.769Z,101053.55
2023-05-09T18:46:24.660Z,101051.01
2023-05-09T18:48:57.474Z,101055.69
2023-05-09T18:51:34.744Z,101055.21
2023-05-09T19:19:30.504Z,101043.79
2023-05-09T19:50:27.940Z,101036.30
2023-05-09T19:53:08.959Z,101036.63
2023-05-09T19:55:50.056Z,101040.91
2023-05-09T19:58:18.581Z,101038.88
2023-05-09T20:00:58.654Z,101039.55
2023-05-09T20:03:26.900Z,101042.77
2023-05-09T20:08:41.706Z,101039.17
2023-05-09T20:11:09.776Z,101035.98
2023-05-09T20:13:38.008Z,101034.98
2023-05-09T20:16:12.062Z,101031.97
2023-05-09T20:18:40.099Z,101032.55
2023-05-09T20:21:16.736Z,101032.09
2023-05-09T20:23:44.833Z,101040.73
2023-05-09T20:26:13.503Z,101037.35
2023-05-09T20:28:41.960Z,101035.50
2023-05-09T20:31:10.756Z,101034.87
2023-05-09T20:33:40.409Z,101036.62
2023-05-09T20:36:10.225Z,101033.05
2023-05-09T20:38:38.244Z,101031.20
2023-05-09T20:41:06.378Z,101033.29
2023-05-09T20:43:35.008Z,101028.52
2023-05-09T20:46:03.911Z,101034.02
2023-05-09T20:48:32.670Z,101031.48
2023-05-09T20:51:01.231Z,101029.44
2023-05-09T20:53:31.705Z,101028.96
2023-05-09T20:56:02.139Z,101028.98
2023-05-09T20:58:33.265Z,101027.13
2023-05-09T21:01:02.174Z,101028.52
2023-05-09T21:03:30.317Z,101029.22
2023-05-09T21:05:59.356Z,101028.21
2023-05-09T21:08:27.639Z,101026.16
2023-05-09T21:10:55.690Z,101027.90
2023-05-09T21:13:23.825Z,101028.92
2023-05-09T21:15:54.256Z,101025.52
2023-05-09T21:18:22.348Z,101023.30
2023-05-09T21:20:50.565Z,101025.02
2023-05-09T21:23:18.825Z,101029.14
2023-05-09T21:25:46.827Z,101023.48
2023-05-09T21:28:15.094Z,101023.67
2023-05-09T21:30:43.525Z,101024.87
2023-05-09T21:33:11.718Z,101023.84
2023-05-09T21:35:39.728Z,101024.02
2023-05-09T21:38:08.723Z,101023.50
2023-05-09T21:40:36.818Z,101021.98
2023-05-09T21:43:04.878Z,101025.74
2023-05-09T21:45:33.255Z,101024.20
2023-05-09T21:48:01.395Z,101024.89
2023-05-09T21:50:29.622Z,101023.20
2023-05-09T21:52:57.757Z,101023.88
2023-05-09T21:55:26.592Z,101019.77
2023-05-09T21:57:54.714Z,101020.45
2023-05-09T22:00:23.004Z,101026.61
2023-05-09T22:02:52.150Z,101021.30
2023-05-09T22:05:20.588Z,101024.92
2023-05-09T22:07:48.518Z,101024.93
2023-05-09T22:10:16.967Z,101027.84
2023-05-09T22:12:45.193Z,101023.39
2023-05-09T22:15:13.618Z,101022.53
2023-05-09T22:17:41.675Z,101019.81
2023-05-09T22:20:11.563Z,101025.31
2023-05-09T22:22:39.817Z,101022.05
2023-05-09T22:25:09.010Z,101024.12
2023-05-09T22:27:37.050Z,101020.35
2023-05-09T22:30:08.570Z,101015.23
2023-05-09T22:32:40.849Z,101017.47
2023-05-09T22:35:10.775Z,101013.54
2023-05-09T22:37:38.828Z,101010.29
2023-05-09T22:40:09.987Z,101012.01
2023-05-09T22:42:39.354Z,101007.58
2023-05-09T22:45:09.445Z,101010.31
2023-05-09T22:47:37.610Z,101006.73
2023-05-09T22:50:07.723Z,101005.02
2023-05-09T22:52:35.774Z,101009.98
2023-05-09T22:55:04.449Z,101007.23
2023-05-09T22:57:32.502Z,101008.80
2023-05-09T23:00:00.585Z,101006.41
2023-05-09T23:02:29.122Z,101008.13
2023-05-09T23:04:57.335Z,101005.23
2023-05-09T23:07:25.415Z,101008.81
2023-05-09T23:09:53.411Z,101001.79
2023-05-09T23:12:21.483Z,101005.05
2023-05-09T23:14:49.611Z,100999.25
2023-05-09T23:17:22.330Z,100998.90
2023-05-09T23:19:50.521Z,100998.23
2023-05-09T23:22:18.595Z,100998.22
2023-05-09T23:24:46.593Z,101002.31
2023-05-09T23:27:14.541Z,101000.61
2023-05-09T23:29:42.858Z,100998.38
2023-05-09T23:32:11.160Z,101002.84
2023-05-09T23:34:41.503Z,101001.47
2023-05-09T23:37:09.877Z,100999.07
2023-05-09T23:39:40.109Z,100999.08
2023-05-09T23:42:08.104Z,100998.05
2023-05-09T23:44:36.455Z,101001.13
2023-05-09T23:47:05.904Z,100997.19
2023-05-09T23:49:34.279Z,100998.02
2023-05-09T23:52:02.380Z,100993.76
2023-05-09T23:54:30.559Z,100991.02
2023-05-09T23:56:58.615Z,100987.60
2023-05-09T23:59:26.730Z,100984.34
